sensor_id;sensor_type;location;lat;lon;timestamp;P1;durP1;ratioP1;P2;durP2;ratioP2
11230;SDS011;5672;51.060;3.734;2022-07-19T00:01:42;5.77;;;2.83;;
11230;SDS011;5672;51.060;3.734;2022-07-19T00:04:08;6.90;;;3.30;;
11230;SDS011;5672;51.060;3.734;2022-07-19T00:06:34;5.83;;;2.97;;
11230;SDS011;5672;51.060;3.734;2022-07-19T00:09:00;2.83;;;2.67;;
11230;SDS011;5672;51.060;3.734;2022-07-19T00:11:26;3.80;;;2.97;;
11230;SDS011;5672;51.060;3.734;2022-07-19T00:13:52;2.90;;;2.70;;
11230;SDS011;5672;51.060;3.734;2022-07-19T00:16:18;2.77;;;2.57;;
11230;SDS011;5672;51.060;3.734;2022-07-19T00:18:44;3.97;;;3.07;;
11230;SDS011;5672;51.060;3.734;2022-07-19T00:21:10;5.87;;;3.10;;
11230;SDS011;5672;51.060;3.734;2022-07-19T00:23:37;2.93;;;2.50;;
11230;SDS011;5672;51.060;3.734;2022-07-19T00:26:03;4.43;;;3.17;;
11230;SDS011;5672;51.060;3.734;2022-07-19T00:28:29;5.20;;;3.10;;
11230;SDS011;5672;51.060;3.734;2022-07-19T00:30:56;3.57;;;3.10;;
11230;SDS011;5672;51.060;3.734;2022-07-19T00:33:22;3.40;;;3.10;;
11230;SDS011;5672;51.060;3.734;2022-07-19T00:35:48;2.83;;;2.63;;
11230;SDS011;5672;51.060;3.734;2022-07-19T00:38:14;4.53;;;3.00;;
11230;SDS011;5672;51.060;3.734;2022-07-19T00:40:40;7.00;;;2.73;;
11230;SDS011;5672;51.060;3.734;2022-07-19T00:43:07;3.10;;;2.80;;
11230;SDS011;5672;51.060;3.734;2022-07-19T00:45:34;3.20;;;2.90;;
11230;SDS011;5672;51.060;3.734;2022-07-19T00:48:00;2.60;;;2.50;;
11230;SDS011;5672;51.060;3.734;2022-07-19T00:50:26;2.93;;;2.70;;
11230;SDS011;5672;51.060;3.734;2022-07-19T00:52:53;8.33;;;2.97;;
11230;SDS011;5672;51.060;3.734;2022-07-19T00:55:20;5.13;;;3.00;;
11230;SDS011;5672;51.060;3.734;2022-07-19T00:57:47;3.83;;;3.00;;
11230;SDS011;5672;51.060;3.734;2022-07-19T01:00:13;3.37;;;2.60;;
11230;SDS011;5672;51.060;3.734;2022-07-19T01:02:40;4.03;;;3.20;;
11230;SDS011;5672;51.060;3.734;2022-07-19T01:05:07;3.83;;;3.20;;
11230;SDS011;5672;51.060;3.734;2022-07-19T01:07:34;3.43;;;3.10;;
11230;SDS011;5672;51.060;3.734;2022-07-19T01:10:04;4.00;;;3.33;;
11230;SDS011;5672;51.060;3.734;2022-07-19T01:12:31;5.77;;;3.20;;
11230;SDS011;5672;51.060;3.734;2022-07-19T01:14:58;3.37;;;3.07;;
11230;SDS011;5672;51.060;3.734;2022-07-19T01:17:24;3.60;;;3.30;;
11230;SDS011;5672;51.060;3.734;2022-07-19T01:19:50;3.47;;;2.80;;
11230;SDS011;5672;51.060;3.734;2022-07-19T01:22:16;3.50;;;3.10;;
11230;SDS011;5672;51.060;3.734;2022-07-19T01:24:43;6.80;;;2.83;;
11230;SDS011;5672;51.060;3.734;2022-07-19T01:27:09;4.10;;;2.80;;
11230;SDS011;5672;51.060;3.734;2022-07-19T01:29:35;3.43;;;3.20;;
11230;SDS011;5672;51.060;3.734;2022-07-19T01:36:53;5.10;;;2.80;;
11230;SDS011;5672;51.060;3.734;2022-07-19T01:39:19;4.40;;;2.90;;
11230;SDS011;5672;51.060;3.734;2022-07-19T01:41:45;3.17;;;2.90;;
11230;SDS011;5672;51.060;3.734;2022-07-19T01:44:11;2.80;;;2.60;;
11230;SDS011;5672;51.060;3.734;2022-07-19T01:46:37;5.97;;;3.40;;
11230;SDS011;5672;51.060;3.734;2022-07-19T01:49:03;3.67;;;3.00;;
11230;SDS011;5672;51.060;3.734;2022-07-19T01:51:29;4.80;;;3.17;;
11230;SDS011;5672;51.060;3.734;2022-07-19T01:53:55;4.90;;;3.13;;
11230;SDS011;5672;51.060;3.734;2022-07-19T01:56:21;3.93;;;2.90;;
11230;SDS011;5672;51.060;3.734;2022-07-19T01:58:47;3.13;;;2.93;;
11230;SDS011;5672;51.060;3.734;2022-07-19T02:01:13;2.80;;;2.50;;
11230;SDS011;5672;51.060;3.734;2022-07-19T02:03:39;3.07;;;2.90;;
11230;SDS011;5672;51.060;3.734;2022-07-19T02:06:05;3.17;;;2.87;;
11230;SDS011;5672;51.060;3.734;2022-07-19T02:08:31;3.73;;;3.27;;
11230;SDS011;5672;51.060;3.734;2022-07-19T02:10:57;3.60;;;3.13;;
11230;SDS011;5672;51.060;3.734;2022-07-19T02:13:47;2.90;;;2.70;;
11230;SDS011;5672;51.060;3.734;2022-07-19T02:16:13;4.80;;;3.10;;
11230;SDS011;5672;51.060;3.734;2022-07-19T02:18:39;4.30;;;3.07;;
11230;SDS011;5672;51.060;3.734;2022-07-19T02:21:05;3.03;;;2.83;;
11230;SDS011;5672;51.060;3.734;2022-07-19T02:23:31;3.40;;;3.17;;
11230;SDS011;5672;51.060;3.734;2022-07-19T02:25:57;3.77;;;2.90;;
11230;SDS011;5672;51.060;3.734;2022-07-19T02:31:13;3.33;;;2.90;;
11230;SDS011;5672;51.060;3.734;2022-07-19T02:33:39;4.97;;;3.03;;
11230;SDS011;5672;51.060;3.734;2022-07-19T02:36:05;3.57;;;3.27;;
11230;SDS011;5672;51.060;3.734;2022-07-19T02:38:31;4.37;;;3.47;;
11230;SDS011;5672;51.060;3.734;2022-07-19T02:40:58;7.17;;;3.47;;
11230;SDS011;5672;51.060;3.734;2022-07-19T02:43:24;5.27;;;3.33;;
11230;SDS011;5672;51.060;3.734;2022-07-19T02:45:50;5.50;;;3.00;;
11230;SDS011;5672;51.060;3.734;2022-07-19T02:48:16;4.03;;;3.43;;
11230;SDS011;5672;51.060;3.734;2022-07-19T02:50:42;4.07;;;2.93;;
11230;SDS011;5672;51.060;3.734;2022-07-19T02:53:08;4.20;;;3.20;;
11230;SDS011;5672;51.060;3.734;2022-07-19T02:55:34;7.90;;;3.30;;
11230;SDS011;5672;51.060;3.734;2022-07-19T02:58:01;3.77;;;2.90;;
11230;SDS011;5672;51.060;3.734;2022-07-19T03:00:27;7.00;;;3.53;;
11230;SDS011;5672;51.060;3.734;2022-07-19T03:02:53;2.90;;;2.70;;
11230;SDS011;5672;51.060;3.734;2022-07-19T03:05:19;3.10;;;2.80;;
11230;SDS011;5672;51.060;3.734;2022-07-19T03:07:45;3.00;;;2.80;;
11230;SDS011;5672;51.060;3.734;2022-07-19T03:10:11;4.27;;;3.10;;
11230;SDS011;5672;51.060;3.734;2022-07-19T03:12:38;3.10;;;2.90;;
11230;SDS011;5672;51.060;3.734;2022-07-19T03:15:04;6.50;;;4.23;;
11230;SDS011;5672;51.060;3.734;2022-07-19T03:17:30;6.80;;;3.63;;
11230;SDS011;5672;51.060;3.734;2022-07-19T03:19:56;5.37;;;3.47;;
11230;SDS011;5672;51.060;3.734;2022-07-19T03:22:22;4.87;;;3.23;;
11230;SDS011;5672;51.060;3.734;2022-07-19T03:24:49;3.97;;;3.50;;
11230;SDS011;5672;51.060;3.734;2022-07-19T03:27:15;6.60;;;3.37;;
11230;SDS011;5672;51.060;3.734;2022-07-19T03:29:41;4.13;;;3.67;;
11230;SDS011;5672;51.060;3.734;2022-07-19T03:32:07;3.67;;;3.10;;
11230;SDS011;5672;51.060;3.734;2022-07-19T03:34:33;3.33;;;3.03;;
11230;SDS011;5672;51.060;3.734;2022-07-19T03:36:59;3.27;;;2.97;;
11230;SDS011;5672;51.060;3.734;2022-07-19T03:39:25;8.43;;;3.17;;
11230;SDS011;5672;51.060;3.734;2022-07-19T03:41:51;5.20;;;3.60;;
11230;SDS011;5672;51.060;3.734;2022-07-19T03:44:17;9.40;;;3.60;;
11230;SDS011;5672;51.060;3.734;2022-07-19T03:46:43;5.43;;;3.83;;
11230;SDS011;5672;51.060;3.734;2022-07-19T03:49:09;5.70;;;3.80;;
11230;SDS011;5672;51.060;3.734;2022-07-19T03:51:35;3.63;;;3.33;;
11230;SDS011;5672;51.060;3.734;2022-07-19T03:54:01;6.27;;;3.87;;
11230;SDS011;5672;51.060;3.734;2022-07-19T03:56:27;5.93;;;3.70;;
11230;SDS011;5672;51.060;3.734;2022-07-19T03:58:53;3.87;;;3.50;;
11230;SDS011;5672;51.060;3.734;2022-07-19T04:01:19;4.10;;;3.23;;
11230;SDS011;5672;51.060;3.734;2022-07-19T04:03:45;6.40;;;3.73;;
11230;SDS011;5672;51.060;3.734;2022-07-19T04:06:11;8.33;;;3.60;;
11230;SDS011;5672;51.060;3.734;2022-07-19T04:08:37;4.63;;;3.30;;
11230;SDS011;5672;51.060;3.734;2022-07-19T04:11:03;4.40;;;3.40;;
11230;SDS011;5672;51.060;3.734;2022-07-19T04:13:31;3.50;;;3.20;;
11230;SDS011;5672;51.060;3.734;2022-07-19T04:15:57;7.30;;;3.70;;
11230;SDS011;5672;51.060;3.734;2022-07-19T04:18:23;4.57;;;3.43;;
11230;SDS011;5672;51.060;3.734;2022-07-19T04:20:49;4.00;;;3.70;;
11230;SDS011;5672;51.060;3.734;2022-07-19T04:23:15;3.80;;;3.40;;
11230;SDS011;5672;51.060;3.734;2022-07-19T04:25:41;4.87;;;3.90;;
11230;SDS011;5672;51.060;3.734;2022-07-19T04:28:07;4.47;;;3.80;;
11230;SDS011;5672;51.060;3.734;2022-07-19T04:30:33;3.43;;;3.13;;
11230;SDS011;5672;51.060;3.734;2022-07-19T04:32:59;6.97;;;3.80;;
11230;SDS011;5672;51.060;3.734;2022-07-19T04:35:25;4.80;;;3.27;;
11230;SDS011;5672;51.060;3.734;2022-07-19T04:37:51;4.10;;;3.60;;
11230;SDS011;5672;51.060;3.734;2022-07-19T04:40:18;4.90;;;3.63;;
11230;SDS011;5672;51.060;3.734;2022-07-19T04:42:44;3.57;;;3.37;;
11230;SDS011;5672;51.060;3.734;2022-07-19T04:45:10;3.80;;;3.50;;
11230;SDS011;5672;51.060;3.734;2022-07-19T04:47:36;3.83;;;3.53;;
11230;SDS011;5672;51.060;3.734;2022-07-19T04:50:02;6.20;;;3.70;;
11230;SDS011;5672;51.060;3.734;2022-07-19T04:52:28;4.07;;;3.77;;
11230;SDS011;5672;51.060;3.734;2022-07-19T04:54:54;5.83;;;3.90;;
11230;SDS011;5672;51.060;3.734;2022-07-19T04:57:20;4.13;;;3.73;;
11230;SDS011;5672;51.060;3.734;2022-07-19T04:59:46;3.70;;;3.40;;
11230;SDS011;5672;51.060;3.734;2022-07-19T05:02:12;5.53;;;3.60;;
11230;SDS011;5672;51.060;3.734;2022-07-19T05:04:38;5.90;;;3.50;;
11230;SDS011;5672;51.060;3.734;2022-07-19T05:07:04;7.47;;;3.60;;
11230;SDS011;5672;51.060;3.734;2022-07-19T05:09:31;5.03;;;3.23;;
11230;SDS011;5672;51.060;3.734;2022-07-19T05:11:57;3.37;;;3.03;;
11230;SDS011;5672;51.060;3.734;2022-07-19T05:14:23;4.90;;;3.23;;
11230;SDS011;5672;51.060;3.734;2022-07-19T05:16:49;4.50;;;3.30;;
11230;SDS011;5672;51.060;3.734;2022-07-19T05:19:15;3.63;;;3.33;;
11230;SDS011;5672;51.060;3.734;2022-07-19T05:21:41;5.93;;;3.67;;
11230;SDS011;5672;51.060;3.734;2022-07-19T05:24:07;5.87;;;3.70;;
11230;SDS011;5672;51.060;3.734;2022-07-19T05:26:33;5.50;;;3.50;;
11230;SDS011;5672;51.060;3.734;2022-07-19T05:29:00;4.33;;;3.70;;
11230;SDS011;5672;51.060;3.734;2022-07-19T05:31:26;6.40;;;3.50;;
11230;SDS011;5672;51.060;3.734;2022-07-19T05:33:52;4.00;;;3.50;;
11230;SDS011;5672;51.060;3.734;2022-07-19T05:36:18;6.83;;;3.30;;
11230;SDS011;5672;51.060;3.734;2022-07-19T05:38:44;8.93;;;3.50;;
11230;SDS011;5672;51.060;3.734;2022-07-19T05:41:10;6.37;;;3.40;;
11230;SDS011;5672;51.060;3.734;2022-07-19T05:43:37;4.30;;;3.10;;
11230;SDS011;5672;51.060;3.734;2022-07-19T05:46:04;5.60;;;3.40;;
11230;SDS011;5672;51.060;3.734;2022-07-19T05:48:30;6.97;;;3.63;;
11230;SDS011;5672;51.060;3.734;2022-07-19T05:50:57;4.80;;;3.23;;
11230;SDS011;5672;51.060;3.734;2022-07-19T05:53:23;3.33;;;3.13;;
11230;SDS011;5672;51.060;3.734;2022-07-19T05:55:49;5.40;;;3.63;;
11230;SDS011;5672;51.060;3.734;2022-07-19T05:58:15;3.90;;;3.57;;
11230;SDS011;5672;51.060;3.734;2022-07-19T06:00:43;5.97;;;3.70;;
11230;SDS011;5672;51.060;3.734;2022-07-19T06:03:29;4.63;;;3.63;;
11230;SDS011;5672;51.060;3.734;2022-07-19T06:05:55;3.70;;;3.33;;
11230;SDS011;5672;51.060;3.734;2022-07-19T06:08:21;7.00;;;3.00;;
11230;SDS011;5672;51.060;3.734;2022-07-19T06:10:47;5.07;;;3.47;;
11230;SDS011;5672;51.060;3.734;2022-07-19T06:13:13;5.60;;;3.23;;
11230;SDS011;5672;51.060;3.734;2022-07-19T06:15:39;3.53;;;3.13;;
11230;SDS011;5672;51.060;3.734;2022-07-19T06:18:05;3.70;;;3.33;;
11230;SDS011;5672;51.060;3.734;2022-07-19T06:20:31;6.13;;;3.20;;
11230;SDS011;5672;51.060;3.734;2022-07-19T06:22:57;3.90;;;3.20;;
11230;SDS011;5672;51.060;3.734;2022-07-19T06:25:23;4.17;;;3.10;;
11230;SDS011;5672;51.060;3.734;2022-07-19T06:27:49;3.60;;;3.20;;
11230;SDS011;5672;51.060;3.734;2022-07-19T06:30:15;5.17;;;3.03;;
11230;SDS011;5672;51.060;3.734;2022-07-19T06:32:41;4.43;;;2.87;;
11230;SDS011;5672;51.060;3.734;2022-07-19T06:35:07;6.57;;;3.27;;
11230;SDS011;5672;51.060;3.734;2022-07-19T06:37:33;5.10;;;3.07;;
11230;SDS011;5672;51.060;3.734;2022-07-19T06:39:59;5.77;;;3.33;;
11230;SDS011;5672;51.060;3.734;2022-07-19T06:42:25;3.80;;;3.10;;
11230;SDS011;5672;51.060;3.734;2022-07-19T06:44:51;3.03;;;2.80;;
11230;SDS011;5672;51.060;3.734;2022-07-19T06:47:17;4.17;;;3.10;;
11230;SDS011;5672;51.060;3.734;2022-07-19T06:49:43;5.63;;;3.20;;
11230;SDS011;5672;51.060;3.734;2022-07-19T06:52:09;4.23;;;3.67;;
11230;SDS011;5672;51.060;3.734;2022-07-19T06:54:35;3.60;;;3.30;;
11230;SDS011;5672;51.060;3.734;2022-07-19T06:57:01;5.70;;;3.80;;
11230;SDS011;5672;51.060;3.734;2022-07-19T06:59:27;4.40;;;4.00;;
11230;SDS011;5672;51.060;3.734;2022-07-19T07:01:53;5.33;;;4.90;;
11230;SDS011;5672;51.060;3.734;2022-07-19T07:04:19;4.20;;;3.90;;
11230;SDS011;5672;51.060;3.734;2022-07-19T07:06:45;4.37;;;4.07;;
11230;SDS011;5672;51.060;3.734;2022-07-19T07:09:11;9.00;;;4.77;;
11230;SDS011;5672;51.060;3.734;2022-07-19T07:11:37;4.07;;;3.67;;
11230;SDS011;5672;51.060;3.734;2022-07-19T07:14:03;6.17;;;4.47;;
11230;SDS011;5672;51.060;3.734;2022-07-19T07:16:29;5.93;;;4.57;;
11230;SDS011;5672;51.060;3.734;2022-07-19T07:18:55;4.30;;;4.00;;
11230;SDS011;5672;51.060;3.734;2022-07-19T07:21:21;4.57;;;4.20;;
11230;SDS011;5672;51.060;3.734;2022-07-19T07:23:47;6.03;;;3.83;;
11230;SDS011;5672;51.060;3.734;2022-07-19T07:26:13;4.23;;;3.60;;
11230;SDS011;5672;51.060;3.734;2022-07-19T07:28:40;3.43;;;3.20;;
11230;SDS011;5672;51.060;3.734;2022-07-19T07:31:06;4.77;;;3.60;;
11230;SDS011;5672;51.060;3.734;2022-07-19T07:33:32;3.33;;;3.13;;
11230;SDS011;5672;51.060;3.734;2022-07-19T07:35:58;4.30;;;3.60;;
11230;SDS011;5672;51.060;3.734;2022-07-19T07:38:24;5.17;;;3.17;;
11230;SDS011;5672;51.060;3.734;2022-07-19T07:40:50;5.37;;;3.23;;
11230;SDS011;5672;51.060;3.734;2022-07-19T07:43:16;6.63;;;3.33;;
11230;SDS011;5672;51.060;3.734;2022-07-19T07:45:42;4.80;;;3.30;;
11230;SDS011;5672;51.060;3.734;2022-07-19T07:48:08;3.37;;;3.10;;
11230;SDS011;5672;51.060;3.734;2022-07-19T07:50:35;5.73;;;3.70;;
11230;SDS011;5672;51.060;3.734;2022-07-19T07:53:01;4.07;;;3.67;;
11230;SDS011;5672;51.060;3.734;2022-07-19T07:55:27;4.40;;;4.00;;
11230;SDS011;5672;51.060;3.734;2022-07-19T07:57:53;5.27;;;3.33;;
11230;SDS011;5672;51.060;3.734;2022-07-19T08:00:19;3.23;;;3.03;;
11230;SDS011;5672;51.060;3.734;2022-07-19T08:02:45;4.13;;;3.30;;
11230;SDS011;5672;51.060;3.734;2022-07-19T08:05:11;3.53;;;3.33;;
11230;SDS011;5672;51.060;3.734;2022-07-19T08:07:37;3.97;;;3.40;;
11230;SDS011;5672;51.060;3.734;2022-07-19T08:10:04;4.63;;;3.50;;
11230;SDS011;5672;51.060;3.734;2022-07-19T08:12:31;6.10;;;3.40;;
11230;SDS011;5672;51.060;3.734;2022-07-19T08:14:57;3.33;;;3.00;;
11230;SDS011;5672;51.060;3.734;2022-07-19T08:17:23;3.23;;;3.03;;
11230;SDS011;5672;51.060;3.734;2022-07-19T08:19:49;5.07;;;2.97;;
11230;SDS011;5672;51.060;3.734;2022-07-19T08:22:15;9.20;;;3.60;;
11230;SDS011;5672;51.060;3.734;2022-07-19T08:24:42;2.90;;;2.70;;
11230;SDS011;5672;51.060;3.734;2022-07-19T08:27:08;3.53;;;3.30;;
11230;SDS011;5672;51.060;3.734;2022-07-19T08:29:34;5.17;;;3.20;;
11230;SDS011;5672;51.060;3.734;2022-07-19T08:32:00;3.50;;;3.03;;
11230;SDS011;5672;51.060;3.734;2022-07-19T08:34:26;4.23;;;2.80;;
11230;SDS011;5672;51.060;3.734;2022-07-19T08:36:52;5.03;;;2.93;;
11230;SDS011;5672;51.060;3.734;2022-07-19T08:39:18;3.80;;;2.90;;
11230;SDS011;5672;51.060;3.734;2022-07-19T08:41:45;3.80;;;3.43;;
11230;SDS011;5672;51.060;3.734;2022-07-19T08:44:11;3.60;;;3.40;;
11230;SDS011;5672;51.060;3.734;2022-07-19T08:46:39;5.63;;;3.50;;
11230;SDS011;5672;51.060;3.734;2022-07-19T08:49:06;3.93;;;3.60;;
11230;SDS011;5672;51.060;3.734;2022-07-19T08:51:32;4.50;;;4.10;;
11230;SDS011;5672;51.060;3.734;2022-07-19T08:53:58;3.60;;;3.30;;
11230;SDS011;5672;51.060;3.734;2022-07-19T08:56:24;5.70;;;3.70;;
11230;SDS011;5672;51.060;3.734;2022-07-19T08:59:09;4.73;;;4.30;;
11230;SDS011;5672;51.060;3.734;2022-07-19T09:01:35;5.13;;;4.63;;
11230;SDS011;5672;51.060;3.734;2022-07-19T09:04:02;5.47;;;4.50;;
11230;SDS011;5672;51.060;3.734;2022-07-19T09:06:48;4.50;;;4.10;;
11230;SDS011;5672;51.060;3.734;2022-07-19T09:09:15;3.87;;;3.40;;
11230;SDS011;5672;51.060;3.734;2022-07-19T09:11:43;5.30;;;3.50;;
11230;SDS011;5672;51.060;3.734;2022-07-19T09:14:20;6.27;;;3.70;;
11230;SDS011;5672;51.060;3.734;2022-07-19T09:16:51;3.60;;;3.40;;
11230;SDS011;5672;51.060;3.734;2022-07-19T09:19:17;6.90;;;3.93;;
11230;SDS011;5672;51.060;3.734;2022-07-19T09:22:18;3.40;;;3.10;;
11230;SDS011;5672;51.060;3.734;2022-07-19T09:24:37;4.23;;;3.07;;
11230;SDS011;5672;51.060;3.734;2022-07-19T09:27:04;6.33;;;3.90;;
11230;SDS011;5672;51.060;3.734;2022-07-19T09:29:32;3.50;;;3.30;;
11230;SDS011;5672;51.060;3.734;2022-07-19T09:32:08;5.00;;;3.40;;
11230;SDS011;5672;51.060;3.734;2022-07-19T09:34:37;5.53;;;3.50;;
11230;SDS011;5672;51.060;3.734;2022-07-19T09:37:10;3.93;;;3.27;;
11230;SDS011;5672;51.060;3.734;2022-07-19T09:39:36;6.80;;;3.30;;
11230;SDS011;5672;51.060;3.734;2022-07-19T09:42:06;3.43;;;3.10;;
11230;SDS011;5672;51.060;3.734;2022-07-19T09:44:32;6.13;;;3.27;;
11230;SDS011;5672;51.060;3.734;2022-07-19T09:46:58;5.27;;;3.30;;
11230;SDS011;5672;51.060;3.734;2022-07-19T09:49:24;4.93;;;3.00;;
11230;SDS011;5672;51.060;3.734;2022-07-19T09:51:52;4.55;;;3.38;;
11230;SDS011;5672;51.060;3.734;2022-07-19T09:54:19;5.57;;;3.63;;
11230;SDS011;5672;51.060;3.734;2022-07-19T09:56:46;5.27;;;3.33;;
11230;SDS011;5672;51.060;3.734;2022-07-19T09:59:12;6.80;;;2.97;;
11230;SDS011;5672;51.060;3.734;2022-07-19T10:01:38;3.17;;;2.83;;
11230;SDS011;5672;51.060;3.734;2022-07-19T10:04:06;6.57;;;3.30;;
11230;SDS011;5672;51.060;3.734;2022-07-19T10:06:33;5.60;;;3.20;;
11230;SDS011;5672;51.060;3.734;2022-07-19T10:09:00;6.50;;;3.03;;
11230;SDS011;5672;51.060;3.734;2022-07-19T10:11:26;4.85;;;3.47;;
11230;SDS011;5672;51.060;3.734;2022-07-19T10:13:52;4.23;;;2.90;;
11230;SDS011;5672;51.060;3.734;2022-07-19T10:16:21;8.63;;;3.15;;
11230;SDS011;5672;51.060;3.734;2022-07-19T10:18:51;6.40;;;3.67;;
11230;SDS011;5672;51.060;3.734;2022-07-19T10:21:19;6.47;;;3.95;;
11230;SDS011;5672;51.060;3.734;2022-07-19T10:23:52;8.90;;;3.13;;
11230;SDS011;5672;51.060;3.734;2022-07-19T10:26:34;7.07;;;4.18;;
11230;SDS011;5672;51.060;3.734;2022-07-19T10:29:11;5.40;;;2.78;;
11230;SDS011;5672;51.060;3.734;2022-07-19T10:31:38;4.80;;;3.53;;
11230;SDS011;5672;51.060;3.734;2022-07-19T10:34:21;5.68;;;3.03;;
11230;SDS011;5672;51.060;3.734;2022-07-19T10:36:48;2.97;;;2.78;;
11230;SDS011;5672;51.060;3.734;2022-07-19T10:39:19;4.15;;;3.72;;
11230;SDS011;5672;51.060;3.734;2022-07-19T10:49:48;8.47;;;4.67;;
11230;SDS011;5672;51.060;3.734;2022-07-19T10:57:37;7.30;;;4.27;;
11230;SDS011;5672;51.060;3.734;2022-07-19T11:00:23;6.00;;;4.68;;
11230;SDS011;5672;51.060;3.734;2022-07-19T11:02:52;9.38;;;7.25;;
11230;SDS011;5672;51.060;3.734;2022-07-19T11:05:26;8.95;;;7.07;;
11230;SDS011;5672;51.060;3.734;2022-07-19T11:07:56;9.77;;;7.72;;
11230;SDS011;5672;51.060;3.734;2022-07-19T11:12:48;13.70;;;8.55;;
11230;SDS011;5672;51.060;3.734;2022-07-19T11:15:14;9.38;;;7.13;;
11230;SDS011;5672;51.060;3.734;2022-07-19T11:17:54;8.60;;;7.00;;
11230;SDS011;5672;51.060;3.734;2022-07-19T11:20:25;9.50;;;8.50;;
11230;SDS011;5672;51.060;3.734;2022-07-19T11:22:51;12.95;;;10.25;;
11230;SDS011;5672;51.060;3.734;2022-07-19T11:25:23;8.48;;;6.53;;
11230;SDS011;5672;51.060;3.734;2022-07-19T11:27:50;13.98;;;12.43;;
11230;SDS011;5672;51.060;3.734;2022-07-19T11:30:16;9.88;;;8.38;;
11230;SDS011;5672;51.060;3.734;2022-07-19T11:32:42;11.43;;;8.27;;
11230;SDS011;5672;51.060;3.734;2022-07-19T11:35:15;11.18;;;9.98;;
11230;SDS011;5672;51.060;3.734;2022-07-19T11:37:42;8.63;;;5.85;;
11230;SDS011;5672;51.060;3.734;2022-07-19T11:40:09;10.48;;;5.80;;
11230;SDS011;5672;51.060;3.734;2022-07-19T11:42:39;7.72;;;4.90;;
11230;SDS011;5672;51.060;3.734;2022-07-19T11:45:07;8.80;;;6.18;;
11230;SDS011;5672;51.060;3.734;2022-07-19T11:47:33;5.93;;;4.63;;
11230;SDS011;5672;51.060;3.734;2022-07-19T11:50:06;6.32;;;5.18;;
11230;SDS011;5672;51.060;3.734;2022-07-19T11:55:18;6.80;;;5.97;;
11230;SDS011;5672;51.060;3.734;2022-07-19T11:57:44;6.03;;;5.30;;
11230;SDS011;5672;51.060;3.734;2022-07-19T12:00:11;6.93;;;4.30;;
11230;SDS011;5672;51.060;3.734;2022-07-19T12:02:53;4.07;;;3.30;;
11230;SDS011;5672;51.060;3.734;2022-07-19T12:05:24;4.85;;;3.97;;
11230;SDS011;5672;51.060;3.734;2022-07-19T12:07:50;8.13;;;4.60;;
11230;SDS011;5672;51.060;3.734;2022-07-19T12:10:36;4.82;;;3.55;;
11230;SDS011;5672;51.060;3.734;2022-07-19T12:13:03;5.45;;;3.63;;
11230;SDS011;5672;51.060;3.734;2022-07-19T12:18:14;5.70;;;3.83;;
11230;SDS011;5672;51.060;3.734;2022-07-19T12:20:42;3.95;;;3.65;;
11230;SDS011;5672;51.060;3.734;2022-07-19T12:23:12;4.15;;;3.83;;
11230;SDS011;5672;51.060;3.734;2022-07-19T12:25:38;7.13;;;3.80;;
11230;SDS011;5672;51.060;3.734;2022-07-19T12:28:05;8.90;;;3.67;;
11230;SDS011;5672;51.060;3.734;2022-07-19T12:30:31;5.05;;;4.00;;
11230;SDS011;5672;51.060;3.734;2022-07-19T12:33:10;7.50;;;3.67;;
11230;SDS011;5672;51.060;3.734;2022-07-19T12:35:40;6.88;;;4.15;;
11230;SDS011;5672;51.060;3.734;2022-07-19T12:38:07;4.10;;;3.67;;
11230;SDS011;5672;51.060;3.734;2022-07-19T12:40:36;5.88;;;4.10;;
11230;SDS011;5672;51.060;3.734;2022-07-19T12:43:02;5.75;;;3.58;;
11230;SDS011;5672;51.060;3.734;2022-07-19T12:45:38;3.22;;;3.03;;
11230;SDS011;5672;51.060;3.734;2022-07-19T12:48:06;6.03;;;3.40;;
11230;SDS011;5672;51.060;3.734;2022-07-19T12:50:40;5.10;;;3.33;;
11230;SDS011;5672;51.060;3.734;2022-07-19T12:53:08;3.80;;;3.50;;
11230;SDS011;5672;51.060;3.734;2022-07-19T12:55:35;3.78;;;3.20;;
11230;SDS011;5672;51.060;3.734;2022-07-19T12:58:02;8.07;;;3.15;;
11230;SDS011;5672;51.060;3.734;2022-07-19T13:00:28;5.90;;;3.47;;
11230;SDS011;5672;51.060;3.734;2022-07-19T13:02:55;7.75;;;3.60;;
11230;SDS011;5672;51.060;3.734;2022-07-19T13:05:22;3.22;;;3.00;;
11230;SDS011;5672;51.060;3.734;2022-07-19T13:07:49;4.00;;;3.13;;
11230;SDS011;5672;51.060;3.734;2022-07-19T13:10:15;5.05;;;3.10;;
11230;SDS011;5672;51.060;3.734;2022-07-19T13:12:41;3.70;;;3.40;;
11230;SDS011;5672;51.060;3.734;2022-07-19T13:15:08;4.80;;;3.10;;
11230;SDS011;5672;51.060;3.734;2022-07-19T13:17:34;3.72;;;3.42;;
11230;SDS011;5672;51.060;3.734;2022-07-19T13:20:00;5.40;;;3.65;;
11230;SDS011;5672;51.060;3.734;2022-07-19T13:22:26;4.65;;;3.67;;
11230;SDS011;5672;51.060;3.734;2022-07-19T13:24:53;8.75;;;3.30;;
11230;SDS011;5672;51.060;3.734;2022-07-19T13:27:19;7.30;;;3.20;;
11230;SDS011;5672;51.060;3.734;2022-07-19T13:29:45;4.20;;;3.72;;
11230;SDS011;5672;51.060;3.734;2022-07-19T13:32:11;4.43;;;3.88;;
11230;SDS011;5672;51.060;3.734;2022-07-19T13:34:37;4.10;;;3.70;;
11230;SDS011;5672;51.060;3.734;2022-07-19T13:37:03;4.95;;;3.65;;
11230;SDS011;5672;51.060;3.734;2022-07-19T13:39:30;4.32;;;3.30;;
11230;SDS011;5672;51.060;3.734;2022-07-19T13:41:56;11.20;;;4.00;;
11230;SDS011;5672;51.060;3.734;2022-07-19T13:44:22;7.22;;;3.55;;
11230;SDS011;5672;51.060;3.734;2022-07-19T13:46:48;4.03;;;3.65;;
11230;SDS011;5672;51.060;3.734;2022-07-19T13:49:14;5.13;;;3.42;;
11230;SDS011;5672;51.060;3.734;2022-07-19T13:51:40;3.60;;;3.28;;
11230;SDS011;5672;51.060;3.734;2022-07-19T13:54:07;3.33;;;3.10;;
11230;SDS011;5672;51.060;3.734;2022-07-19T13:56:33;4.53;;;2.80;;
11230;SDS011;5672;51.060;3.734;2022-07-19T13:58:59;3.22;;;2.97;;
11230;SDS011;5672;51.060;3.734;2022-07-19T14:01:25;5.22;;;3.25;;
11230;SDS011;5672;51.060;3.734;2022-07-19T14:03:52;8.00;;;3.70;;
11230;SDS011;5672;51.060;3.734;2022-07-19T14:06:18;7.65;;;3.75;;
11230;SDS011;5672;51.060;3.734;2022-07-19T14:08:44;6.65;;;3.53;;
11230;SDS011;5672;51.060;3.734;2022-07-19T14:11:10;5.28;;;3.58;;
11230;SDS011;5672;51.060;3.734;2022-07-19T14:13:36;5.78;;;3.50;;
11230;SDS011;5672;51.060;3.734;2022-07-19T14:16:02;3.70;;;3.38;;
11230;SDS011;5672;51.060;3.734;2022-07-19T14:18:29;11.18;;;4.20;;
11230;SDS011;5672;51.060;3.734;2022-07-19T14:20:55;5.10;;;3.50;;
11230;SDS011;5672;51.060;3.734;2022-07-19T14:23:21;5.38;;;3.30;;
11230;SDS011;5672;51.060;3.734;2022-07-19T14:25:48;4.18;;;3.83;;
11230;SDS011;5672;51.060;3.734;2022-07-19T14:28:14;5.32;;;4.18;;
11230;SDS011;5672;51.060;3.734;2022-07-19T14:30:43;5.00;;;3.67;;
11230;SDS011;5672;51.060;3.734;2022-07-19T14:33:09;7.40;;;3.53;;
11230;SDS011;5672;51.060;3.734;2022-07-19T14:35:36;5.20;;;3.80;;
11230;SDS011;5672;51.060;3.734;2022-07-19T14:38:02;3.75;;;3.30;;
11230;SDS011;5672;51.060;3.734;2022-07-19T14:40:29;3.72;;;3.42;;
11230;SDS011;5672;51.060;3.734;2022-07-19T14:42:55;4.55;;;3.53;;
11230;SDS011;5672;51.060;3.734;2022-07-19T14:45:21;3.42;;;2.95;;
11230;SDS011;5672;51.060;3.734;2022-07-19T14:47:47;4.38;;;3.03;;
11230;SDS011;5672;51.060;3.734;2022-07-19T14:50:13;5.22;;;2.97;;
11230;SDS011;5672;51.060;3.734;2022-07-19T14:52:40;4.78;;;2.88;;
11230;SDS011;5672;51.060;3.734;2022-07-19T14:55:07;2.90;;;2.78;;
11230;SDS011;5672;51.060;3.734;2022-07-19T14:57:33;7.22;;;2.85;;
11230;SDS011;5672;51.060;3.734;2022-07-19T15:00:00;3.78;;;2.65;;
11230;SDS011;5672;51.060;3.734;2022-07-19T15:02:26;3.03;;;2.83;;
11230;SDS011;5672;51.060;3.734;2022-07-19T15:04:52;4.38;;;2.53;;
11230;SDS011;5672;51.060;3.734;2022-07-19T15:07:18;3.67;;;2.80;;
11230;SDS011;5672;51.060;3.734;2022-07-19T15:09:44;6.18;;;2.50;;
11230;SDS011;5672;51.060;3.734;2022-07-19T15:12:10;5.00;;;2.67;;
11230;SDS011;5672;51.060;3.734;2022-07-19T15:14:36;2.97;;;2.78;;
11230;SDS011;5672;51.060;3.734;2022-07-19T15:17:02;5.80;;;3.08;;
11230;SDS011;5672;51.060;3.734;2022-07-19T15:19:29;4.05;;;3.10;;
11230;SDS011;5672;51.060;3.734;2022-07-19T15:21:55;3.28;;;2.67;;
11230;SDS011;5672;51.060;3.734;2022-07-19T15:24:22;3.05;;;2.70;;
11230;SDS011;5672;51.060;3.734;2022-07-19T15:26:48;4.85;;;2.58;;
11230;SDS011;5672;51.060;3.734;2022-07-19T15:29:14;4.20;;;2.83;;